Karmel — 9HA2896 — position and weather

sailwx.info

Track history (hours):
 
Tides and Currents Weather Stations Pressure Air Temp Water Temp Dewpoint Dewpoint Depression Visibility Wind Speed Wind Dir Waves Ship Positions

Karmel

Last reported at 2015-Jul-06 18:33 UTC. Time now 2015-Jul-07 11:07 UTC.
Position N 58°38' E 016°20'.

Length 90 m; draft 3.8 m.

Type: Cargo ship. MMSI: 256632000.

Date/timePositionNaut miles runAvg speedWind from/ knotsBaromVisibWave heightAir tempDewpointWater temp
2015-Jul-06 18:33N 58°38' E 016°20'9 9.3
2015-Jul-06 17:34N 58°38' E 016°38'  
2015-Jul-04 13:30N 55°39' E 016°12'1010.4
2015-Jul-04 12:33N 55°36' E 015°55'1010.5
2015-Jul-04 11:33N 55°34' E 015°38'1010.4
2015-Jul-04 10:33N 55°30' E 015°20'1010.1
2015-Jul-04 09:33N 55°27' E 015°03'1010.1
2015-Jul-04 08:33N 55°25' E 014°46'10 9.6
2015-Jul-04 07:34N 55°19' E 014°33'1010.1
2015-Jul-04 06:34N 55°11' E 014°21'1010.2
2015-Jul-04 05:33N 55°10' E 014°03'10 9.8
2015-Jul-04 04:33N 55°11' E 013°46'10 9.6
2015-Jul-04 03:33N 55°12' E 013°30'9 9.5
2015-Jul-04 02:33N 55°13' E 013°13'10 9.7
2015-Jul-04 01:33N 55°14' E 012°56'10 9.6
2015-Jul-04 00:33N 55°17' E 012°40'9 8.9
2015-Jul-03 23:33N 55°26' E 012°40'9 9.4
2015-Jul-03 22:33N 55°35' E 012°42'9 9.0
2015-Jul-03 21:34N 55°44' E 012°41'9 9.3
2015-Jul-03 20:33N 55°54' E 012°38'9 9.1
2015-Jul-03 19:33N 56°03' E 012°38'8 8.2
2015-Jul-03 18:33N 56°08' E 012°27'1010.0
2015-Jul-03 17:33N 56°14' E 012°13'10 9.1
2015-Jul-03 16:27N 56°22' E 012°01'9 9.7
2015-Jul-03 15:34N 56°30' E 011°58'1010.0
2015-Jul-03 14:33N 56°40' E 011°54'10 9.9
2015-Jul-03 13:33N 56°50' E 011°49'10 9.7
2015-Jul-03 12:34N 56°59' E 011°43'9 9.4
2015-Jul-03 11:33N 57°08' E 011°37'9 9.4
2015-Jul-03 10:34N 57°16' E 011°31'9 9.5
2015-Jul-03 09:33N 57°25' E 011°25'9 8.9
2015-Jul-03 08:34N 57°32' E 011°14'9 8.8
2015-Jul-03 07:33N 57°38' E 011°02'10 9.0
2015-Jul-03 06:29N 57°45' E 010°49'8 8.6
2015-Jul-03 05:30N 57°51' E 010°39'9 9.4
2015-Jul-03 04:32N 57°60' E 010°33'9 9.4
2015-Jul-03 03:33N 58°08' E 010°26'9 9.3
2015-Jul-03 02:34N 58°17' E 010°19'11 9.1
2015-Jul-03 01:24N 58°27' E 010°12'8 9.3
2015-Jul-03 00:33N 58°34' E 010°06'9 9.5
2015-Jul-02 23:33N 58°43' E 009°59'1010.0
2015-Jul-02 22:33N 58°52' E 009°51'11 9.8
2015-Jul-02 21:25N 59°02' E 009°44'6 7.5
2015-Jul-02 20:33N 59°06' E 009°34'0 0.0
2015-Jul-02 14:22N 59°06' E 009°34'0 0.0
2015-Jul-02 07:28N 59°06' E 009°34'0 0.0
2015-Jul-02 06:30N 59°06' E 009°34'0 0.0
2015-Jul-02 05:34N 59°06' E 009°34'0 0.0
2015-Jul-02 04:33N 59°06' E 009°34'0 0.0
2015-Jul-02 03:33N 59°06' E 009°34'0 0.0
2015-Jul-02 02:34N 59°06' E 009°34'0 0.0
2015-Jul-02 01:34N 59°06' E 009°34'0 0.0
2015-Jul-02 00:33N 59°06' E 009°34'0 0.0
2015-Jul-01 23:34N 59°06' E 009°34'0 0.0
2015-Jul-01 22:33N 59°06' E 009°34'0 0.0
2015-Jul-01 21:33N 59°06' E 009°34'0 0.0
2015-Jul-01 20:34N 59°06' E 009°34'0 0.0
2015-Jul-01 19:33N 59°06' E 009°34'0 0.0
2015-Jul-01 18:34N 59°06' E 009°34'0 0.0
2015-Jul-01 17:33N 59°06' E 009°34'0 0.0
2015-Jul-01 16:34N 59°06' E 009°34'1 1.5
2015-Jul-01 15:33N 59°06' E 009°37'9 9.3
2015-Jul-01 14:33N 58°58' E 009°47'1111.4
2015-Jul-01 13:34N 58°48' E 009°55'1211.9
2015-Jul-01 12:33N 58°37' E 010°04'1211.5
2015-Jul-01 11:33N 58°26' E 010°14'1111.4
2015-Jul-01 10:34N 58°16' E 010°23'1211.4
2015-Jul-01 09:33N 58°06' E 010°32'1111.0
2015-Jul-01 08:34N 57°56' E 010°40'1411.4
2015-Jul-01 07:21N 57°42' E 010°46'1012.2
2015-Jul-01 06:34N 57°33' E 010°44'1212.4
2015-Jul-01 05:34N 57°20' E 010°43'1211.8
2015-Jul-01 04:32N 57°08' E 010°47'1111.0
2015-Jul-01 03:32N 56°57' E 010°49'1111.6
2015-Jul-01 02:34N 56°47' E 010°40'1211.5
2015-Jul-01 01:33N 56°37' E 010°30'10 8.6
2015-Jul-01 00:26N 56°33' E 010°14'6 7.0
2015-Jun-30 23:33N 56°28' E 010°09'3 2.9
2015-Jun-30 22:31N 56°28' E 010°03'0 0.0
2015-Jun-30 21:30N 56°28' E 010°03'0 0.1
2015-Jun-30 20:32N 56°28' E 010°03'0 0.0
2015-Jun-30 19:26N 56°28' E 010°03'0 0.0
2015-Jun-30 18:23N 56°28' E 010°03'0 0.0
2015-Jun-30 16:11N 56°28' E 010°03'0 0.0
2015-Jun-30 15:29N 56°28' E 010°03'0 0.0
2015-Jun-30 14:16N 56°28' E 010°03'0 0.0
2015-Jun-30 13:31N 56°28' E 010°03'0 0.0
2015-Jun-30 12:31N 56°28' E 010°03'0 0.0
2015-Jun-30 11:31N 56°28' E 010°03'0 0.0
2015-Jun-30 10:28N 56°28' E 010°03'0 0.0
2015-Jun-30 09:31N 56°28' E 010°03'0 0.0
2015-Jun-30 08:28N 56°28' E 010°03'0 0.0
2015-Jun-30 07:31N 56°28' E 010°03'0 0.0
2015-Jun-30 06:31N 56°28' E 010°03'0 0.0
2015-Jun-30 05:31N 56°28' E 010°03'0 0.0
2015-Jun-30 04:31N 56°28' E 010°03'0 0.0
2015-Jun-30 03:32N 56°28' E 010°03'0 0.0
2015-Jun-30 02:30N 56°28' E 010°03'0 0.0
2015-Jun-30 01:33N 56°28' E 010°03'0 0.0
2015-Jun-30 00:33N 56°28' E 010°03'0 0.0
2015-Jun-29 23:24N 56°28' E 010°03'0 0.0
2015-Jun-29 22:33N 56°28' E 010°03'0 0.0
2015-Jun-29 21:30N 56°28' E 010°03'0 0.0
2015-Jun-29 20:33N 56°28' E 010°03'0 0.0
2015-Jun-29 19:30N 56°28' E 010°03'0 0.0
2015-Jun-29 18:30N 56°28' E 010°03'0 0.0
2015-Jun-29 17:24N 56°28' E 010°03'0 0.0
2015-Jun-29 16:24N 56°28' E 010°03'0 0.0
2015-Jun-29 15:33N 56°28' E 010°03'0 0.0
2015-Jun-29 14:30N 56°28' E 010°03'0 0.0
2015-Jun-29 13:24N 56°28' E 010°03'0 0.0
2015-Jun-29 12:24N 56°28' E 010°03'0 0.0
2015-Jun-29 10:30N 56°28' E 010°03'0 0.0
2015-Jun-29 09:33N 56°28' E 010°03'0 0.0
2015-Jun-28 06:14N 56°28' E 010°03'1 1.0
2015-Jun-28 05:32N 56°28' E 010°04'71 6.5
2015-Jun-27 18:33N 56°16' E 012°11'8 8.4
2015-Jun-27 17:34N 56°11' E 012°23'9 9.3
2015-Jun-27 16:33N 56°05' E 012°36'1110.6
2015-Jun-27 15:33N 55°56' E 012°44'1010.4
2015-Jun-27 14:34N 55°45' E 012°42'1110.9
2015-Jun-27 13:34N 55°34' E 012°42'1010.2
2015-Jun-27 12:34N 55°24' E 012°42'9 8.2
2015-Jun-27 11:28N 55°16' E 012°50'22 9.8
2015-Jun-27 09:16N 55°15' E 013°28'28 9.9
2015-Jun-27 06:26N 55°15' E 014°17'1110.4
2015-Jun-27 05:23N 55°23' E 014°29'810.0
2015-Jun-27 04:33N 55°28' E 014°41'1010.3
2015-Jun-27 03:33N 55°31' E 014°58'1010.2
2015-Jun-27 02:33N 55°34' E 015°16'10 9.8
2015-Jun-27 01:30N 55°37' E 015°33'3210.0
2015-Jun-26 22:18N 55°46' E 016°28'17 9.8
2015-Jun-26 20:33N 55°51' E 016°57'  
Track history (hours):
 
Tides and Currents Weather Stations Pressure Air Temp Water Temp Dewpoint Dewpoint Depression Visibility Wind Speed Wind Dir Waves Ship Positions

Karmel

Last reported at 2015-Jul-06 18:33 UTC. Time now 2015-Jul-07 11:07 UTC.
Position N 58°38' E 016°20'.

Length 90 m; draft 3.8 m.

Type: Cargo ship. MMSI: 256632000.

Date/timePositionNaut miles runAvg speedWind from/ knotsBaromVisibWave heightAir tempDewpointWater temp
2015-Jul-06 18:33N 58°38' E 016°20'9 9.3
2015-Jul-06 17:34N 58°38' E 016°38'  
2015-Jul-04 13:30N 55°39' E 016°12'1010.4
2015-Jul-04 12:33N 55°36' E 015°55'1010.5
2015-Jul-04 11:33N 55°34' E 015°38'1010.4
2015-Jul-04 10:33N 55°30' E 015°20'1010.1
2015-Jul-04 09:33N 55°27' E 015°03'1010.1
2015-Jul-04 08:33N 55°25' E 014°46'10 9.6
2015-Jul-04 07:34N 55°19' E 014°33'1010.1
2015-Jul-04 06:34N 55°11' E 014°21'1010.2
2015-Jul-04 05:33N 55°10' E 014°03'10 9.8
2015-Jul-04 04:33N 55°11' E 013°46'10 9.6
2015-Jul-04 03:33N 55°12' E 013°30'9 9.5
2015-Jul-04 02:33N 55°13' E 013°13'10 9.7
2015-Jul-04 01:33N 55°14' E 012°56'10 9.6
2015-Jul-04 00:33N 55°17' E 012°40'9 8.9
2015-Jul-03 23:33N 55°26' E 012°40'9 9.4
2015-Jul-03 22:33N 55°35' E 012°42'9 9.0
2015-Jul-03 21:34N 55°44' E 012°41'9 9.3
2015-Jul-03 20:33N 55°54' E 012°38'9 9.1
2015-Jul-03 19:33N 56°03' E 012°38'8 8.2
2015-Jul-03 18:33N 56°08' E 012°27'1010.0
2015-Jul-03 17:33N 56°14' E 012°13'10 9.1
2015-Jul-03 16:27N 56°22' E 012°01'9 9.7
2015-Jul-03 15:34N 56°30' E 011°58'1010.0
2015-Jul-03 14:33N 56°40' E 011°54'10 9.9
2015-Jul-03 13:33N 56°50' E 011°49'10 9.7
2015-Jul-03 12:34N 56°59' E 011°43'9 9.4
2015-Jul-03 11:33N 57°08' E 011°37'9 9.4
2015-Jul-03 10:34N 57°16' E 011°31'9 9.5
2015-Jul-03 09:33N 57°25' E 011°25'9 8.9
2015-Jul-03 08:34N 57°32' E 011°14'9 8.8
2015-Jul-03 07:33N 57°38' E 011°02'10 9.0
2015-Jul-03 06:29N 57°45' E 010°49'8 8.6
2015-Jul-03 05:30N 57°51' E 010°39'9 9.4
2015-Jul-03 04:32N 57°60' E 010°33'9 9.4
2015-Jul-03 03:33N 58°08' E 010°26'9 9.3
2015-Jul-03 02:34N 58°17' E 010°19'11 9.1
2015-Jul-03 01:24N 58°27' E 010°12'8 9.3
2015-Jul-03 00:33N 58°34' E 010°06'9 9.5
2015-Jul-02 23:33N 58°43' E 009°59'1010.0
2015-Jul-02 22:33N 58°52' E 009°51'11 9.8
2015-Jul-02 21:25N 59°02' E 009°44'6 7.5
2015-Jul-02 20:33N 59°06' E 009°34'0 0.0
2015-Jul-02 14:22N 59°06' E 009°34'0 0.0
2015-Jul-02 07:28N 59°06' E 009°34'0 0.0
2015-Jul-02 06:30N 59°06' E 009°34'0 0.0
2015-Jul-02 05:34N 59°06' E 009°34'0 0.0
2015-Jul-02 04:33N 59°06' E 009°34'0 0.0
2015-Jul-02 03:33N 59°06' E 009°34'0 0.0
2015-Jul-02 02:34N 59°06' E 009°34'0 0.0
2015-Jul-02 01:34N 59°06' E 009°34'0 0.0
2015-Jul-02 00:33N 59°06' E 009°34'0 0.0
2015-Jul-01 23:34N 59°06' E 009°34'0 0.0
2015-Jul-01 22:33N 59°06' E 009°34'0 0.0
2015-Jul-01 21:33N 59°06' E 009°34'0 0.0
2015-Jul-01 20:34N 59°06' E 009°34'0 0.0
2015-Jul-01 19:33N 59°06' E 009°34'0 0.0
2015-Jul-01 18:34N 59°06' E 009°34'0 0.0
2015-Jul-01 17:33N 59°06' E 009°34'0 0.0
2015-Jul-01 16:34N 59°06' E 009°34'1 1.5
2015-Jul-01 15:33N 59°06' E 009°37'9 9.3
2015-Jul-01 14:33N 58°58' E 009°47'1111.4
2015-Jul-01 13:34N 58°48' E 009°55'1211.9
2015-Jul-01 12:33N 58°37' E 010°04'1211.5
2015-Jul-01 11:33N 58°26' E 010°14'1111.4
2015-Jul-01 10:34N 58°16' E 010°23'1211.4
2015-Jul-01 09:33N 58°06' E 010°32'1111.0
2015-Jul-01 08:34N 57°56' E 010°40'1411.4
2015-Jul-01 07:21N 57°42' E 010°46'1012.2
2015-Jul-01 06:34N 57°33' E 010°44'1212.4
2015-Jul-01 05:34N 57°20' E 010°43'1211.8
2015-Jul-01 04:32N 57°08' E 010°47'1111.0
2015-Jul-01 03:32N 56°57' E 010°49'1111.6
2015-Jul-01 02:34N 56°47' E 010°40'1211.5
2015-Jul-01 01:33N 56°37' E 010°30'10 8.6
2015-Jul-01 00:26N 56°33' E 010°14'6 7.0
2015-Jun-30 23:33N 56°28' E 010°09'3 2.9
2015-Jun-30 22:31N 56°28' E 010°03'0 0.0
2015-Jun-30 21:30N 56°28' E 010°03'0 0.1
2015-Jun-30 20:32N 56°28' E 010°03'0 0.0
2015-Jun-30 19:26N 56°28' E 010°03'0 0.0
2015-Jun-30 18:23N 56°28' E 010°03'0 0.0
2015-Jun-30 16:11N 56°28' E 010°03'0 0.0
2015-Jun-30 15:29N 56°28' E 010°03'0 0.0
2015-Jun-30 14:16N 56°28' E 010°03'0 0.0
2015-Jun-30 13:31N 56°28' E 010°03'0 0.0
2015-Jun-30 12:31N 56°28' E 010°03'0 0.0
2015-Jun-30 11:31N 56°28' E 010°03'0 0.0
2015-Jun-30 10:28N 56°28' E 010°03'0 0.0
2015-Jun-30 09:31N 56°28' E 010°03'0 0.0
2015-Jun-30 08:28N 56°28' E 010°03'0 0.0
2015-Jun-30 07:31N 56°28' E 010°03'0 0.0
2015-Jun-30 06:31N 56°28' E 010°03'0 0.0
2015-Jun-30 05:31N 56°28' E 010°03'0 0.0
2015-Jun-30 04:31N 56°28' E 010°03'0 0.0
2015-Jun-30 03:32N 56°28' E 010°03'0 0.0
2015-Jun-30 02:30N 56°28' E 010°03'0 0.0
2015-Jun-30 01:33N 56°28' E 010°03'0 0.0
2015-Jun-30 00:33N 56°28' E 010°03'0 0.0
2015-Jun-29 23:24N 56°28' E 010°03'0 0.0
2015-Jun-29 22:33N 56°28' E 010°03'0 0.0
2015-Jun-29 21:30N 56°28' E 010°03'0 0.0
2015-Jun-29 20:33N 56°28' E 010°03'0 0.0
2015-Jun-29 19:30N 56°28' E 010°03'0 0.0
2015-Jun-29 18:30N 56°28' E 010°03'0 0.0
2015-Jun-29 17:24N 56°28' E 010°03'0 0.0
2015-Jun-29 16:24N 56°28' E 010°03'0 0.0
2015-Jun-29 15:33N 56°28' E 010°03'0 0.0
2015-Jun-29 14:30N 56°28' E 010°03'0 0.0
2015-Jun-29 13:24N 56°28' E 010°03'0 0.0
2015-Jun-29 12:24N 56°28' E 010°03'0 0.0
2015-Jun-29 10:30N 56°28' E 010°03'0 0.0
2015-Jun-29 09:33N 56°28' E 010°03'0 0.0
2015-Jun-28 06:14N 56°28' E 010°03'1 1.0
2015-Jun-28 05:32N 56°28' E 010°04'71 6.5
2015-Jun-27 18:33N 56°16' E 012°11'8 8.4
2015-Jun-27 17:34N 56°11' E 012°23'9 9.3
2015-Jun-27 16:33N 56°05' E 012°36'1110.6
2015-Jun-27 15:33N 55°56' E 012°44'1010.4
2015-Jun-27 14:34N 55°45' E 012°42'1110.9
2015-Jun-27 13:34N 55°34' E 012°42'1010.2
2015-Jun-27 12:34N 55°24' E 012°42'9 8.2
2015-Jun-27 11:28N 55°16' E 012°50'22 9.8
2015-Jun-27 09:16N 55°15' E 013°28'28 9.9
2015-Jun-27 06:26N 55°15' E 014°17'1110.4
2015-Jun-27 05:23N 55°23' E 014°29'810.0
2015-Jun-27 04:33N 55°28' E 014°41'1010.3
2015-Jun-27 03:33N 55°31' E 014°58'1010.2
2015-Jun-27 02:33N 55°34' E 015°16'10 9.8
2015-Jun-27 01:30N 55°37' E 015°33'3210.0
2015-Jun-26 22:18N 55°46' E 016°28'17 9.8
2015-Jun-26 20:33N 55°51' E 016°57'  

Dump ship's entire track history